Time;durP1;ratioP1;P1;durP2;ratioP2;P2;SDS_P1;SDS_P2;PMS_P1;PMS_P2;Temp;Humidity;BMP_temperature;BMP_pressure;BME280_temperature;BME280_humidity;BME280_pressure;Samples;Min_cycle;Max_cycle;Signal;HPM_P1;HPM_P2
2021/11/03 00:02:05;;;;;;;14.23;6.47;;;;;;;6.53;82.53;98781.13;4901764;29;20060;-63
2021/11/03 00:04:41;;;;;;;14.70;7.60;;;;;;;6.54;83.25;98784.50;4901701;29;20053;-63
2021/11/03 00:07:17;;;;;;;16.98;7.47;;;;;;;6.56;83.05;98791.28;4901626;29;20048;-63
2021/11/03 00:09:48;;;;;;;17.52;7.60;;;;;;;6.62;83.40;98798.88;4901904;29;20083;-63
2021/11/03 00:12:18;;;;;;;15.80;7.75;;;;;;;6.68;83.38;98793.81;4901569;29;20143;-63
2021/11/03 00:14:50;;;;;;;13.93;6.63;;;;;;;6.71;83.44;98788.75;4913608;29;20052;-63
2021/11/03 00:17:22;;;;;;;15.68;6.72;;;;;;;6.74;83.54;98793.81;4920297;29;20056;-63
2021/11/03 00:19:52;;;;;;;14.20;7.35;;;;;;;6.80;83.62;98792.13;4920313;29;20139;-63
2021/11/03 00:22:24;;;;;;;16.48;7.55;;;;;;;6.87;83.14;98793.81;4920257;29;20163;-63
2021/11/03 00:24:58;;;;;;;15.07;7.45;;;;;;;6.83;83.63;98792.13;4920209;29;20107;-63
2021/11/03 00:27:28;;;;;;;14.68;6.55;;;;;;;6.85;83.26;98800.56;4920129;29;20048;-63
2021/11/03 00:29:57;;;;;;;16.55;7.13;;;;;;;6.80;83.42;98817.47;4920127;29;20048;-63
2021/11/03 00:32:29;;;;;;;16.00;7.60;;;;;;;6.66;83.71;98815.78;4920090;29;20091;-63
2021/11/03 00:35:35;;;;;;;12.25;6.78;;;;;;;6.67;83.78;98822.53;5003248;23;20104;-68
2021/11/03 00:38:08;;;;;;;13.02;6.60;;;;;;;6.69;83.72;98830.16;4919568;29;20051;-64
2021/11/03 00:40:40;;;;;;;12.85;6.55;;;;;;;6.64;84.06;98830.16;4919908;29;20134;-64
2021/11/03 00:43:13;;;;;;;14.23;6.38;;;;;;;6.56;83.93;98829.28;4919881;29;20056;-64
2021/11/03 00:45:42;;;;;;;14.35;7.45;;;;;;;6.45;83.71;98820.84;4919132;29;20064;-64
2021/11/03 00:48:12;;;;;;;13.75;6.97;;;;;;;6.51;83.97;98817.44;4919745;29;20104;-63
2021/11/03 00:50:43;;;;;;;13.25;7.38;;;;;;;6.64;84.14;98826.78;4920067;29;20052;-64
2021/11/03 00:53:19;;;;;;;14.90;6.90;;;;;;;6.57;83.95;98841.13;4919980;29;20059;-64
2021/11/03 00:55:51;;;;;;;14.15;6.55;;;;;;;6.44;83.67;98834.34;4919937;29;20121;-64
2021/11/03 00:58:20;;;;;;;15.20;7.22;;;;;;;6.43;84.33;98836.88;4919624;29;20040;-64
2021/11/03 01:00:50;;;;;;;13.30;7.35;;;;;;;6.55;84.68;98832.66;4919564;29;20060;-64
2021/11/03 01:03:23;;;;;;;12.93;7.00;;;;;;;6.61;84.00;98830.16;4919558;29;20052;-64
2021/11/03 01:05:55;;;;;;;14.93;7.00;;;;;;;6.75;84.60;98841.16;4918298;29;20048;-63
2021/11/03 01:08:24;;;;;;;12.00;5.10;;;;;;;6.69;84.23;98841.13;4919364;29;20135;-63
2021/11/03 01:10:55;;;;;;;13.00;6.47;;;;;;;6.75;84.43;98850.44;4919392;29;20052;-63
2021/11/03 01:13:27;;;;;;;12.52;6.47;;;;;;;6.82;84.20;98841.13;4919291;29;20074;-63
2021/11/03 01:15:58;;;;;;;12.57;6.60;;;;;;;6.87;84.40;98834.38;4918148;29;20055;-64
2021/11/03 01:18:28;;;;;;;13.75;6.90;;;;;;;6.91;84.21;98836.09;4919136;29;20080;-64
2021/11/03 01:20:58;;;;;;;12.57;6.45;;;;;;;6.85;84.11;98841.16;4919474;29;20056;-63
2021/11/03 01:23:31;;;;;;;11.70;6.35;;;;;;;6.81;83.76;98842.84;4919190;29;20082;-64
2021/11/03 01:26:06;;;;;;;16.13;7.47;;;;;;;6.82;84.01;98831.00;4919214;29;20072;-64
2021/11/03 01:28:38;;;;;;;14.70;6.85;;;;;;;6.86;83.45;98832.72;4919416;29;20498;-64
2021/11/03 01:31:11;;;;;;;12.73;6.28;;;;;;;6.81;83.87;98830.19;4919026;29;20072;-64
2021/11/03 01:33:45;;;;;;;13.68;6.45;;;;;;;6.60;83.75;98823.38;4918107;29;20078;-64
2021/11/03 01:36:18;;;;;;;12.75;6.28;;;;;;;6.57;83.93;98831.00;4923740;29;20059;-64
2021/11/03 01:38:51;;;;;;;14.02;6.75;;;;;;;6.57;84.12;98838.59;4937828;29;20044;-64
2021/11/03 01:42:04;;;;;;;11.52;6.63;;;;;;;6.63;84.13;98830.16;5089325;23;20781;31
2021/11/03 01:44:35;;;;;;;10.57;5.63;;;;;;;6.60;84.14;98841.13;4936444;29;20493;-61
2021/11/03 01:47:30;;;;;;;15.10;7.32;;;;;;;6.64;84.48;98847.06;4937703;29;20102;-61
2021/11/03 01:50:03;;;;;;;11.07;5.65;;;;;;;6.51;84.06;98838.59;4931160;29;20056;-61
2021/11/03 01:52:35;;;;;;;15.00;6.57;;;;;;;6.53;84.59;98844.50;4937929;29;20490;-61
2021/11/03 01:55:12;;;;;;;14.07;6.90;;;;;;;6.51;84.57;98840.25;4936401;29;20059;-61
2021/11/03 01:57:49;;;;;;;14.13;6.57;;;;;;;6.54;84.27;98846.19;4936254;29;20086;-61
2021/11/03 02:00:28;;;;;;;17.55;6.80;;;;;;;6.52;84.43;98842.81;4936573;29;20051;-61
2021/11/03 02:03:05;;;;;;;17.00;7.25;;;;;;;6.54;84.51;98840.28;4937385;29;20100;-61
2021/11/03 02:05:39;;;;;;;14.80;6.95;;;;;;;6.65;84.94;98831.00;4937358;29;20131;-61
2021/11/03 02:08:10;;;;;;;13.82;7.20;;;;;;;6.67;84.85;98835.22;4936450;29;20370;-61
2021/11/03 02:10:42;;;;;;;13.32;6.25;;;;;;;6.76;85.37;98836.94;4937876;29;20055;-61
2021/11/03 02:13:16;;;;;;;13.35;7.15;;;;;;;6.66;85.09;98841.16;4937785;29;20043;-61
2021/11/03 02:15:52;;;;;;;16.27;7.60;;;;;;;6.66;84.50;98833.53;4937148;29;20062;-61
2021/11/03 02:18:26;;;;;;;13.20;7.43;;;;;;;6.68;84.79;98834.38;4936150;29;20048;-62
2021/11/03 02:20:57;;;;;;;12.95;6.57;;;;;;;6.64;84.82;98837.78;4935923;29;20074;-61
2021/11/03 02:23:34;;;;;;;14.10;7.15;;;;;;;6.77;85.08;98837.78;4937375;29;20573;-61
2021/11/03 02:26:11;;;;;;;15.18;7.28;;;;;;;6.69;84.95;98841.13;4936974;29;20541;-61
2021/11/03 02:28:45;;;;;;;16.42;7.72;;;;;;;6.68;85.14;98844.53;4936966;29;20048;-61
2021/11/03 02:31:33;;;;;;;16.30;7.93;;;;;;;6.47;85.15;98803.09;4936941;29;20502;-61
2021/11/03 02:34:09;;;;;;;16.10;6.97;;;;;;;6.74;84.65;98838.63;4897256;29;20128;-61
2021/11/03 02:36:52;;;;;;;16.85;7.18;;;;;;;6.87;85.36;98837.78;4896991;29;20053;-61
2021/11/03 02:39:36;;;;;;;17.40;8.00;;;;;;;6.78;84.94;98814.09;4896850;29;20060;-61
2021/11/03 02:42:09;;;;;;;16.60;7.63;;;;;;;6.93;84.95;98836.94;4896609;29;20064;-61
2021/11/03 02:44:44;;;;;;;14.95;7.22;;;;;;;6.98;85.27;98832.72;4897098;29;20057;-61
2021/11/03 02:47:18;;;;;;;17.67;8.27;;;;;;;6.93;85.04;98835.25;4896849;29;20147;-61
2021/11/03 02:49:50;;;;;;;15.02;7.93;;;;;;;6.83;84.51;98832.69;4912622;29;20096;-61
2021/11/03 02:52:26;;;;;;;17.13;7.40;;;;;;;6.68;84.92;98843.69;4897028;29;20048;-61
2021/11/03 02:54:58;;;;;;;17.67;8.20;;;;;;;6.69;84.75;98842.84;4897039;29;20108;-61
2021/11/03 02:57:29;;;;;;;16.20;7.68;;;;;;;6.77;85.18;98830.19;4896672;29;20525;-61
2021/11/03 03:00:01;;;;;;;15.98;6.80;;;;;;;6.92;84.97;98842.84;4897076;29;20053;-61
2021/11/03 03:02:31;;;;;;;15.50;7.25;;;;;;;7.02;85.05;98842.00;4896671;29;20057;-61
2021/11/03 03:05:02;;;;;;;18.20;8.35;;;;;;;7.04;85.63;98847.91;4915656;29;20142;-61
2021/11/03 03:07:31;;;;;;;16.67;7.45;;;;;;;7.11;84.60;98844.53;4936010;29;20047;-61
2021/11/03 03:10:04;;;;;;;17.38;7.75;;;;;;;7.10;84.98;98837.78;4936365;29;20099;-62
2021/11/03 03:12:36;;;;;;;17.98;7.65;;;;;;;7.04;85.39;98832.69;4936671;29;20067;-62
2021/11/03 03:15:09;;;;;;;19.63;8.80;;;;;;;6.98;84.74;98837.78;4936651;29;20533;-62
2021/11/03 03:17:48;;;;;;;16.90;8.45;;;;;;;7.06;85.09;98836.06;4936355;29;20047;-62
2021/11/03 03:20:18;;;;;;;16.23;8.00;;;;;;;6.91;85.05;98831.03;4935397;29;20405;-61
2021/11/03 03:22:48;;;;;;;17.05;7.85;;;;;;;6.94;85.42;98843.69;4936296;29;20075;-61
2021/11/03 03:25:21;;;;;;;;;;;;;;;7.06;85.22;98846.22;4936634;29;20044;-61
2021/11/03 03:27:52;;;;;;;16.30;7.53;;;;;;;7.00;84.86;98852.16;4935432;29;20166;-61
2021/11/03 03:30:24;;;;;;;16.98;8.35;;;;;;;6.83;84.94;98847.91;4936545;29;20083;-61
2021/11/03 03:32:53;;;;;;;18.50;8.00;;;;;;;6.68;85.35;98839.47;4936165;29;20048;-61
2021/11/03 03:35:26;;;;;;;18.50;7.43;;;;;;;6.77;85.47;98863.13;4936164;29;20095;-61
2021/11/03 03:37:55;;;;;;;15.75;7.78;;;;;;;6.72;84.97;98871.56;4936693;29;20083;-61
2021/11/03 03:40:36;;;;;;;17.92;8.05;;;;;;;6.67;85.58;98868.16;4936448;29;20560;-62
2021/11/03 03:43:10;;;;;;;15.50;7.53;;;;;;;6.72;85.66;98879.16;4944107;29;20135;-61
2021/11/03 03:45:43;;;;;;;13.35;7.15;;;;;;;6.66;85.40;98866.50;4954073;29;20043;-61
2021/11/03 03:48:18;;;;;;;16.90;7.68;;;;;;;6.29;85.41;98874.84;4955198;29;20050;-61
2021/11/03 03:50:53;;;;;;;15.73;7.50;;;;;;;6.10;85.57;98875.63;4938104;29;20055;-61
2021/11/03 03:53:24;;;;;;;17.52;7.60;;;;;;;6.07;85.64;98878.13;4955484;29;20053;-61
2021/11/03 03:56:23;;;;;;;18.20;8.13;;;;;;;5.89;86.30;98857.81;4955086;29;20051;-61
2021/11/03 03:58:58;;;;;;;15.52;6.93;;;;;;;6.23;86.12;98882.44;4955041;29;20050;-61
2021/11/03 04:01:31;;;;;;;19.25;8.48;;;;;;;6.43;86.48;98878.25;4955088;29;20055;-61
2021/11/03 04:04:09;;;;;;;19.33;8.27;;;;;;;6.57;86.45;98885.91;4953909;29;20062;-61
2021/11/03 04:06:42;;;;;;;18.38;7.97;;;;;;;6.71;86.32;98877.50;4955331;29;20138;-61
2021/11/03 04:09:15;;;;;;;15.68;7.88;;;;;;;6.78;86.29;98880.03;4954954;29;20043;-61
2021/11/03 04:11:47;;;;;;;19.25;8.00;;;;;;;6.65;86.39;98872.41;4955258;29;20497;-61
2021/11/03 04:14:25;;;;;;;20.65;8.82;;;;;;;6.61;86.24;98887.59;4955481;29;20058;-61
2021/11/03 04:16:58;;;;;;;20.55;8.10;;;;;;;6.54;86.22;98891.81;4954971;29;20051;-61
2021/11/03 04:19:30;;;;;;;20.27;9.15;;;;;;;6.57;86.47;98886.78;4938907;29;20413;-61
2021/11/03 04:22:05;;;;;;;19.10;7.78;;;;;;;6.64;86.13;98892.69;4958669;29;20431;-61
2021/11/03 04:24:44;;;;;;;15.90;7.22;;;;;;;6.57;86.43;98891.84;4958558;29;20051;-61
2021/11/03 04:27:13;;;;;;;17.00;7.65;;;;;;;6.66;86.36;98886.78;4941499;29;20047;-61
2021/11/03 04:29:48;;;;;;;17.33;8.05;;;;;;;6.69;85.73;98881.69;4941165;29;20138;-63
2021/11/03 04:32:21;;;;;;;17.05;8.35;;;;;;;6.83;86.14;98883.41;4958226;29;20134;-61
2021/11/03 04:34:54;;;;;;;18.08;8.00;;;;;;;6.88;85.91;98886.81;4958386;29;20058;-61
2021/11/03 04:37:27;;;;;;;19.70;8.60;;;;;;;6.93;86.26;98891.06;4958102;29;20051;-61
2021/11/03 04:40:00;;;;;;;16.50;7.10;;;;;;;6.93;85.77;98890.19;4956795;29;20044;-61
2021/11/03 04:42:31;;;;;;;22.23;8.38;;;;;;;6.95;85.83;98891.03;4956472;29;20090;-61
2021/11/03 04:45:02;;;;;;;15.82;8.00;;;;;;;6.96;86.20;98880.88;4958244;29;20095;-61
2021/11/03 04:47:35;;;;;;;26.02;11.52;;;;;;;6.87;85.63;98887.63;4958235;29;20142;-61
2021/11/03 04:50:13;;;;;;;34.38;15.85;;;;;;;6.80;86.19;98888.47;4956681;29;20051;-61
2021/11/03 04:52:43;;;;;;;23.83;11.18;;;;;;;6.85;85.72;98896.94;4957293;29;20086;-61
2021/11/03 04:55:15;;;;;;;18.35;8.63;;;;;;;6.91;86.26;98887.63;4957752;29;20055;-61
2021/11/03 04:57:44;;;;;;;22.42;10.43;;;;;;;6.99;85.94;98890.19;4958024;29;20580;-61
2021/11/03 05:00:26;;;;;;;17.73;9.00;;;;;;;7.06;86.02;98890.19;4957733;29;20122;-61
2021/11/03 05:03:21;;;;;;;19.25;9.23;;;;;;;7.07;85.52;98893.59;4825026;29;20454;-61
2021/11/03 05:05:54;;;;;;;20.25;9.98;;;;;;;7.06;86.05;98885.13;4824716;29;20074;-61
2021/11/03 05:08:27;;;;;;;18.90;8.40;;;;;;;7.13;85.88;98883.44;4824605;29;20124;-61
2021/11/03 05:11:00;;;;;;;21.08;8.00;;;;;;;7.13;85.81;98891.03;4824436;29;20057;-61
2021/11/03 05:13:31;;;;;;;20.70;9.02;;;;;;;7.16;85.87;98896.13;4824648;29;20058;-61
2021/11/03 05:16:05;;;;;;;21.23;8.20;;;;;;;7.16;86.11;98896.13;4824390;29;20505;-61
2021/11/03 05:18:38;;;;;;;21.42;8.95;;;;;;;7.07;85.28;98898.66;4824387;29;20050;-61
2021/11/03 05:21:08;;;;;;;23.83;9.05;;;;;;;7.18;85.39;98897.81;4824183;29;20050;-61
2021/11/03 05:23:38;;;;;;;20.20;7.60;;;;;;;7.15;85.68;98891.91;4824540;29;20479;-61
2021/11/03 05:26:11;;;;;;;17.48;7.60;;;;;;;7.14;85.36;98887.66;4824242;29;20129;-61
2021/11/03 05:28:45;;;;;;;23.92;9.93;;;;;;;7.20;85.30;98890.19;4824385;29;20050;-61
2021/11/03 05:31:19;;;;;;;14.10;6.22;;;;;;;7.19;85.31;98883.44;4824200;29;20401;-61
2021/11/03 05:33:56;;;;;;;15.45;6.50;;;;;;;7.13;85.38;98891.03;4824199;29;20107;-61
2021/11/03 05:36:30;;;;;;;20.60;7.55;;;;;;;7.00;85.13;98894.44;4824124;29;20119;-61
2021/11/03 05:39:06;;;;;;;19.35;7.47;;;;;;;7.14;85.03;98915.56;4824017;29;20077;-61
2021/11/03 05:41:39;;;;;;;19.95;8.50;;;;;;;7.21;84.81;98919.81;4943441;29;20062;-61
2021/11/03 05:44:17;;;;;;;19.73;6.97;;;;;;;7.06;85.10;98922.31;4956738;29;20058;-61
2021/11/03 05:46:54;;;;;;;18.08;7.40;;;;;;;7.07;85.16;98918.94;4956879;29;20107;-61
2021/11/03 05:49:29;;;;;;;38.83;16.27;;;;;;;7.01;84.86;98921.47;4956856;29;20138;-61
2021/11/03 05:52:04;;;;;;;26.95;11.30;;;;;;;6.87;84.67;98910.47;4956781;29;20043;-61
2021/11/03 05:54:36;;;;;;;18.83;8.65;;;;;;;6.79;85.13;98942.59;4956712;29;20051;-61
2021/11/03 05:57:06;;;;;;;16.50;6.57;;;;;;;6.70;85.49;98951.84;4956580;29;20043;-61
2021/11/03 05:59:39;;;;;;;15.15;6.68;;;;;;;6.80;85.38;98964.56;4957142;29;20039;-61
2021/11/03 06:02:12;;;;;;;15.32;6.32;;;;;;;6.59;85.28;98961.13;4956575;29;20501;-61
2021/11/03 06:04:45;;;;;;;16.05;6.40;;;;;;;6.57;85.49;98951.81;4956482;29;20051;-61
2021/11/03 06:07:15;;;;;;;16.52;6.80;;;;;;;6.74;85.54;98960.31;4956463;29;20075;-61
2021/11/03 06:09:47;;;;;;;20.55;7.43;;;;;;;6.87;85.70;98953.56;4956693;29;20051;-61
2021/11/03 06:12:17;;;;;;;17.27;7.47;;;;;;;6.95;85.41;98957.00;4956317;29;20516;-61
2021/11/03 06:14:49;;;;;;;20.48;8.13;;;;;;;7.07;85.72;98969.69;4956288;29;20047;-61
2021/11/03 06:17:23;;;;;;;19.52;8.40;;;;;;;7.16;85.66;98969.69;4956182;29;20220;-61
2021/11/03 06:19:56;;;;;;;21.67;8.25;;;;;;;7.24;85.46;98970.56;4956132;29;20047;-61
2021/11/03 06:22:28;;;;;;;17.92;8.63;;;;;;;7.31;86.00;98974.78;4956165;29;20047;-61
2021/11/03 06:25:06;;;;;;;20.17;8.25;;;;;;;7.33;85.02;98984.09;4956197;29;20151;-62
2021/11/03 06:27:38;;;;;;;20.63;8.57;;;;;;;7.40;85.26;98984.94;4956077;29;20062;-61
2021/11/03 06:30:15;;;;;;;19.25;8.20;;;;;;;7.33;85.86;98968.88;4955998;29;20043;-61
2021/11/03 06:32:48;;;;;;;20.98;8.52;;;;;;;7.53;85.27;98979.03;4955956;29;20051;-61
2021/11/03 06:35:23;;;;;;;18.80;7.93;;;;;;;7.57;85.04;98993.44;4956218;29;20585;-61
2021/11/03 06:37:53;;;;;;;19.10;7.80;;;;;;;7.58;84.36;98995.13;4955936;29;20054;-61
2021/11/03 06:40:27;;;;;;;16.30;6.20;;;;;;;7.50;84.92;98991.72;4955788;29;20051;-61
2021/11/03 06:42:57;;;;;;;18.73;7.15;;;;;;;7.53;85.06;98998.50;4954792;28;20066;-61
2021/11/03 06:45:31;;;;;;;17.67;6.32;;;;;;;7.52;84.85;99000.19;4956182;29;20047;-61
2021/11/03 06:48:02;;;;;;;17.92;7.10;;;;;;;7.49;84.24;99005.25;4956050;29;20047;-61
2021/11/03 06:50:35;;;;;;;15.25;6.47;;;;;;;7.51;84.44;99013.72;4955725;29;20055;-62
2021/11/03 06:53:08;;;;;;;18.40;7.88;;;;;;;7.61;84.72;99005.25;4955651;29;20051;-61
2021/11/03 06:55:41;;;;;;;14.73;6.60;;;;;;;7.52;84.71;98996.78;4955617;29;20115;-61
2021/11/03 06:58:14;;;;;;;14.75;5.55;;;;;;;7.50;84.35;98999.34;4955603;29;20133;-61
2021/11/03 07:00:46;;;;;;;15.43;6.18;;;;;;;7.57;84.42;98998.50;4955725;29;20479;-61
2021/11/03 07:03:22;;;;;;;16.08;6.55;;;;;;;7.57;84.42;98995.97;4955668;29;20497;-61
2021/11/03 07:05:53;;;;;;;14.68;7.05;;;;;;;7.57;85.06;99003.56;4955483;29;20560;-61
2021/11/03 07:08:25;;;;;;;17.70;7.20;;;;;;;7.52;84.32;98995.13;4955468;29;20130;-61
2021/11/03 07:11:00;;;;;;;17.25;7.72;;;;;;;7.53;84.66;98986.66;4955803;29;20039;-61
2021/11/03 07:13:32;;;;;;;18.70;7.50;;;;;;;7.72;85.05;98985.81;4955525;29;20115;-61
2021/11/03 07:16:06;;;;;;;14.02;7.32;;;;;;;7.82;84.09;98992.56;4955394;29;20054;-61
2021/11/03 07:18:40;;;;;;;18.67;9.25;;;;;;;7.81;83.97;98985.78;4955415;29;20047;-62
2021/11/03 07:21:09;;;;;;;18.25;7.85;;;;;;;7.78;84.28;98983.25;4955286;29;20050;-61
2021/11/03 07:23:42;;;;;;;21.95;9.43;;;;;;;7.75;83.83;98985.78;4955364;29;20051;-61
2021/11/03 07:26:14;;;;;;;23.48;12.05;;;;;;;7.76;84.52;98989.19;4955655;29;20055;-61
2021/11/03 07:28:43;;;;;;;23.13;11.30;;;;;;;7.70;84.66;98982.41;4955350;29;20051;-61
2021/11/03 07:31:17;;;;;;;22.20;9.13;;;;;;;7.75;84.57;98993.41;4955428;29;20122;-61
2021/11/03 07:33:48;;;;;;;19.23;8.50;;;;;;;7.83;84.33;98995.94;4955559;29;20125;-61
2021/11/03 07:36:21;;;;;;;18.23;8.50;;;;;;;7.94;84.47;98990.00;4955346;29;20497;-61
2021/11/03 07:38:54;;;;;;;12.68;6.45;;;;;;;7.94;83.81;98968.84;4955214;29;20058;-61
2021/11/03 07:41:39;;;;;;;19.23;8.45;;;;;;;8.10;84.03;98991.69;4955524;29;20383;-61
2021/11/03 07:44:13;;;;;;;15.95;7.35;;;;;;;8.17;83.79;98986.56;4954362;29;20055;-61
2021/11/03 07:46:46;;;;;;;15.30;6.55;;;;;;;8.13;83.96;98974.72;4955375;29;20051;-61
2021/11/03 07:49:20;;;;;;;15.05;6.82;;;;;;;8.16;84.07;98975.56;4955448;29;20051;-61
2021/11/03 07:51:53;;;;;;;14.10;7.32;;;;;;;8.24;84.34;98953.50;4955100;29;20047;-61
2021/11/03 07:54:25;;;;;;;16.35;7.38;;;;;;;8.55;83.21;98969.53;4957492;28;20048;-61
2021/11/03 07:56:54;;;;;;;14.63;6.85;;;;;;;8.60;83.50;98962.72;4958337;29;20047;-62
2021/11/03 07:59:24;;;;;;;11.48;5.57;;;;;;;8.78;83.10;98977.91;4958425;29;20507;-61
2021/11/03 08:01:54;;;;;;;13.25;6.97;;;;;;;8.83;83.09;98963.44;4958717;29;20473;-61
2021/11/03 08:04:25;;;;;;;15.15;5.97;;;;;;;9.11;83.00;98987.91;4958557;29;20047;-62
2021/11/03 08:06:55;;;;;;;12.90;5.95;;;;;;;9.18;82.80;98983.63;4958731;29;20079;-61
2021/11/03 08:09:25;;;;;;;11.52;5.82;;;;;;;9.19;82.13;98975.97;4958327;29;20079;-61
2021/11/03 08:11:57;;;;;;;12.18;5.53;;;;;;;9.29;82.67;98992.88;4958666;29;20523;-61
2021/11/03 08:14:29;;;;;;;10.70;5.35;;;;;;;9.35;81.94;98987.75;4958278;29;20102;-61
2021/11/03 08:17:00;;;;;;;9.55;4.97;;;;;;;9.47;81.95;98976.63;4958355;29;20051;-61
2021/11/03 08:19:39;;;;;;;11.10;5.50;;;;;;;9.56;82.19;98978.25;4958446;29;20062;-61
2021/11/03 08:22:09;;;;;;;14.07;5.50;;;;;;;9.59;82.19;98981.63;4958632;29;20476;-61
2021/11/03 08:24:39;;;;;;;11.82;5.82;;;;;;;9.56;81.44;98970.59;4958269;29;20106;-62
2021/11/03 08:27:09;;;;;;;;;;;;;;;9.55;81.23;98968.94;4959021;29;20051;-61
2021/11/03 08:29:39;;;;;;;;;;;;;;;9.65;81.69;98965.41;4958556;29;19922;-61
2021/11/03 08:32:11;;;;;;;10.93;5.25;;;;;;;9.65;80.72;98966.28;4958492;29;19922;-61
2021/11/03 08:34:43;;;;;;;9.73;5.25;;;;;;;9.70;80.91;98963.69;4957925;29;20049;-61
2021/11/03 08:37:16;;;;;;;12.52;4.97;;;;;;;9.66;80.62;98967.97;4958028;29;20047;-61
2021/11/03 08:39:48;;;;;;;8.93;5.18;;;;;;;9.55;80.69;98968.94;4957893;29;20507;-61
2021/11/03 08:42:19;;;;;;;9.00;4.57;;;;;;;9.45;80.93;98963.88;4957547;29;20047;-62
2021/11/03 08:44:48;;;;;;;9.00;4.90;;;;;;;9.31;80.67;98959.75;4958226;29;20047;-61
2021/11/03 08:47:17;;;;;;;13.90;4.32;;;;;;;9.26;80.68;98947.06;4957793;29;20516;-61
2021/11/03 08:49:48;;;;;;;;;;;;;;;9.51;81.20;98962.16;4958454;29;20552;-61
2021/11/03 08:52:19;;;;;;;7.68;4.00;;;;;;;9.57;80.76;98957.00;4958069;29;20025;-61
2021/11/03 08:54:51;;;;;;;8.30;4.82;;;;;;;9.57;80.59;98951.91;4958106;29;20051;-61
2021/11/03 08:57:26;;;;;;;8.48;4.43;;;;;;;9.61;81.33;98943.38;4957677;29;20055;-61
2021/11/03 08:59:57;;;;;;;9.05;4.72;;;;;;;9.68;81.54;98950.09;4958031;29;20142;-61
2021/11/03 09:02:27;;;;;;;9.23;4.82;;;;;;;9.71;80.94;98948.41;4957791;29;20043;-61
2021/11/03 09:04:58;;;;;;;9.73;4.57;;;;;;;9.78;81.21;98944.06;4957192;28;20071;-61
2021/11/03 09:07:27;;;;;;;9.93;4.63;;;;;;;9.69;80.76;98937.38;4957901;29;20141;-61
2021/11/03 09:09:57;;;;;;;8.48;4.15;;;;;;;9.72;81.62;98949.22;4957369;29;20046;-61
2021/11/03 09:12:29;;;;;;;7.53;4.25;;;;;;;9.69;80.81;98916.16;4957469;29;20075;-61
2021/11/03 09:14:59;;;;;;;8.13;4.20;;;;;;;9.82;81.04;98930.44;4957472;29;20481;-61
2021/11/03 09:17:28;;;;;;;;;;;;;;;9.88;81.32;98938.88;4957709;29;20497;-62
2021/11/03 09:20:01;;;;;;;8.75;4.55;;;;;;;9.79;81.53;98927.94;4957634;29;19922;-61
2021/11/03 09:22:34;;;;;;;8.43;4.40;;;;;;;9.76;81.74;98925.41;4957279;29;20044;-61
2021/11/03 09:25:04;;;;;;;9.05;5.43;;;;;;;9.90;81.54;98936.31;4957271;29;20051;-61
2021/11/03 09:27:38;;;;;;;10.07;4.72;;;;;;;9.90;81.54;98929.53;4957307;29;20492;-61
2021/11/03 09:30:10;;;;;;;9.80;4.50;;;;;;;9.75;81.81;98936.44;4957141;29;20057;-61
2021/11/03 09:32:47;;;;;;;7.32;3.95;;;;;;;9.73;81.61;98933.09;4957338;29;20389;-61
2021/11/03 09:35:23;;;;;;;6.45;3.05;;;;;;;9.81;82.16;98927.03;4957362;29;20493;-61
2021/11/03 09:37:57;;;;;;;3.72;1.95;;;;;;;9.72;81.42;98916.94;4957128;29;20051;-61
2021/11/03 09:40:32;;;;;;;3.22;1.80;;;;;;;9.72;81.13;98909.31;4956863;29;20055;-61
2021/11/03 09:43:12;;;;;;;3.28;1.50;;;;;;;9.78;80.48;98910.94;4956601;29;20134;-61
2021/11/03 09:45:41;;;;;;;3.35;1.88;;;;;;;9.77;80.16;98899.06;4957196;29;20405;-61
2021/11/03 09:48:16;;;;;;;;;;;;;;;9.85;78.85;98903.22;4957826;29;20130;-61
2021/11/03 09:50:53;;;;;;;2.58;1.30;;;;;;;9.84;78.17;98900.69;4957161;29;19926;-61
2021/11/03 09:53:28;;;;;;;2.28;1.30;;;;;;;9.94;78.12;98909.94;4956688;29;20102;-61
2021/11/03 09:55:58;;;;;;;3.35;1.50;;;;;;;10.00;78.40;98892.03;4956995;29;20059;-61
2021/11/03 09:58:43;;;;;;;2.28;1.30;;;;;;;10.12;77.70;98891.94;4957212;29;20059;-61
2021/11/03 10:01:28;;;;;;;3.40;1.70;;;;;;;10.34;77.70;98888.22;4957226;29;20047;-61
2021/11/03 10:04:11;;;;;;;4.25;2.05;;;;;;;10.38;78.43;98879.69;4956883;29;20136;-61
2021/11/03 10:06:54;;;;;;;5.18;2.60;;;;;;;10.45;78.64;98873.66;4956515;29;20130;-61
2021/11/03 10:09:23;;;;;;;5.20;2.45;;;;;;;10.46;79.34;98872.78;4956793;29;20133;-61
2021/11/03 10:11:56;;;;;;;4.47;2.42;;;;;;;10.48;79.99;98881.28;4956660;29;20441;-61
2021/11/03 10:14:31;;;;;;;3.25;1.40;;;;;;;10.43;80.21;98877.94;4956289;29;20134;-61
2021/11/03 10:17:24;;;;;;;3.78;1.70;;;;;;;10.59;79.99;98866.66;4955348;28;20086;-61
2021/11/03 10:20:02;;;;;;;3.10;1.20;;;;;;;10.65;79.27;98864.00;4897753;29;20056;-62
2021/11/03 10:22:36;;;;;;;2.85;1.20;;;;;;;10.84;78.46;98853.53;4897160;29;20076;-61
2021/11/03 10:25:23;;;;;;;2.25;1.20;;;;;;;10.88;77.80;98860.28;4897234;29;20541;-61
2021/11/03 10:28:01;;;;;;;2.47;1.10;;;;;;;10.94;76.66;98839.78;4897153;29;20072;-61
2021/11/03 10:30:48;;;;;;;2.42;1.15;;;;;;;11.08;76.15;98846.34;4896970;29;20059;-61
2021/11/03 10:33:32;;;;;;;2.63;1.30;;;;;;;11.13;74.75;98834.31;4896929;29;20052;-62
2021/11/03 10:36:15;;;;;;;2.75;1.25;;;;;;;11.25;74.81;98846.06;4896993;29;20507;-61
2021/11/03 10:38:53;;;;;;;2.53;1.38;;;;;;;11.31;74.84;98830.63;4944109;29;20453;-61
2021/11/03 10:41:28;;;;;;;2.17;1.33;;;;;;;11.34;75.09;98826.31;4955952;29;20051;-61
2021/11/03 10:44:08;;;;;;;2.90;1.40;;;;;;;11.22;74.10;98825.69;4955099;29;20063;-61
2021/11/03 10:46:48;;;;;;;1.90;1.02;;;;;;;11.25;73.79;98815.41;4956173;29;20409;-61
2021/11/03 10:49:50;;;;;;;2.90;1.33;;;;;;;11.30;73.55;98813.63;4956073;29;20047;-61
2021/11/03 10:52:23;;;;;;;1.92;1.00;;;;;;;11.38;73.15;98791.31;4943093;29;20050;-61
2021/11/03 10:55:01;;;;;;;1.77;1.00;;;;;;;11.49;73.50;98788.56;4955632;29;20043;-61
2021/11/03 10:57:38;;;;;;;2.28;1.20;;;;;;;11.66;73.51;98812.94;4955532;29;20044;-61
2021/11/03 11:00:22;;;;;;;4.38;1.77;;;;;;;11.79;73.04;98801.63;4953811;29;20046;-61
2021/11/03 11:03:14;;;;;;;2.33;1.30;;;;;;;12.03;71.30;98775.56;4955577;29;20382;-61
2021/11/03 11:05:49;;;;;;;2.47;1.25;;;;;;;12.32;70.30;98789.44;4896475;29;20052;-61
2021/11/03 11:08:24;;;;;;;2.08;1.10;;;;;;;12.50;69.08;98789.03;4896389;29;20080;-61
2021/11/03 11:11:02;;;;;;;1.67;0.80;;;;;;;12.56;68.27;98779.50;4896666;29;20044;-61
2021/11/03 11:13:37;;;;;;;;;;;;;;;12.74;68.07;98780.81;4896671;29;20044;-61
2021/11/03 11:16:20;;;;;;;1.80;1.00;;;;;;;12.72;67.19;98791.06;4896401;29;19923;-61
2021/11/03 11:18:58;;;;;;;2.08;1.02;;;;;;;12.52;67.17;98783.03;4896354;29;20063;-61
2021/11/03 11:21:38;;;;;;;;;;;;;;;12.44;67.36;98789.16;4896706;29;20049;-61
2021/11/03 11:24:14;;;;;;;2.83;1.50;;;;;;;12.33;67.49;98775.78;4931908;29;19923;-61
2021/11/03 11:26:55;;;;;;;3.80;1.50;;;;;;;12.39;67.87;98778.19;4955129;29;20130;-61
2021/11/03 11:29:35;;;;;;;2.85;1.35;;;;;;;12.37;68.13;98780.78;4957978;28;20059;-61
2021/11/03 11:32:31;;;;;;;2.65;1.30;;;;;;;12.30;67.95;98763.06;4959081;29;20145;-61
2021/11/03 11:35:15;;;;;;;4.53;1.52;;;;;;;12.24;68.56;98735.06;4959255;29;20142;-61
2021/11/03 11:37:56;;;;;;;3.17;1.33;;;;;;;12.49;67.59;98751.53;4959115;29;20138;-61
2021/11/03 11:40:44;;;;;;;2.75;1.23;;;;;;;12.55;67.01;98753.91;4959132;29;20049;-61
2021/11/03 11:43:22;;;;;;;3.03;1.60;;;;;;;12.44;67.63;98748.22;4958656;29;20094;-61
2021/11/03 11:45:51;;;;;;;2.78;1.20;;;;;;;12.50;67.42;98768.56;4959380;29;20045;-61
2021/11/03 11:48:31;;;;;;;2.50;1.30;;;;;;;12.46;67.29;98756.69;4958948;29;20051;-61
2021/11/03 11:51:04;;;;;;;4.28;1.60;;;;;;;12.47;67.66;98763.50;4959484;29;20046;-61
2021/11/03 11:53:41;;;;;;;3.20;1.70;;;;;;;12.46;67.60;98766.94;4959585;29;20492;-61
2021/11/03 11:56:21;;;;;;;4.32;1.55;;;;;;;12.30;67.71;98740.03;4959246;29;20055;-61
2021/11/03 11:58:55;;;;;;;2.53;1.23;;;;;;;12.42;67.79;98761.06;4959163;29;20413;-61
2021/11/03 12:01:57;;;;;;;4.38;1.83;;;;;;;12.34;67.19;98762.09;4959073;29;20154;-61
2021/11/03 12:05:13;;;;;;;3.05;1.60;;;;;;;12.17;67.83;98730.94;4955146;29;20095;-61
2021/11/03 12:07:43;;;;;;;3.70;1.70;;;;;;;12.30;68.03;98740.03;4881058;29;20096;-61
2021/11/03 12:10:32;;;;;;;3.20;1.45;;;;;;;12.42;68.22;98750.81;4880851;29;20139;-61
2021/11/03 12:13:24;;;;;;;2.35;1.30;;;;;;;12.45;67.84;98745.63;4950820;29;20071;-61